createdAt,value
2022-10-04T00:00:56.678Z,15.6
2022-10-04T00:02:03.857Z,15.6
2022-10-04T00:03:11.092Z,15.6
2022-10-04T00:04:17.505Z,15.6
2022-10-04T00:05:24.567Z,15.7
2022-10-04T00:06:31.709Z,15.7
2022-10-04T00:07:38.815Z,15.7
2022-10-04T00:08:46.143Z,15.7
2022-10-04T00:09:52.469Z,15.7
2022-10-04T00:10:59.622Z,15.7
2022-10-04T00:13:13.788Z,15.7
2022-10-04T00:14:20.954Z,15.7
2022-10-04T00:15:27.508Z,15.7
2022-10-04T00:16:34.768Z,15.7
2022-10-04T00:17:41.730Z,15.7
2022-10-04T00:18:48.854Z,15.7
2022-10-04T00:19:55.918Z,15.7
2022-10-04T00:21:02.499Z,15.8
2022-10-04T00:22:09.608Z,15.8
2022-10-04T00:23:16.704Z,15.9
2022-10-04T00:24:23.418Z,15.9
2022-10-04T00:25:30.393Z,15.9
2022-10-04T00:26:37.637Z,15.9
2022-10-04T00:27:44.565Z,15.9
2022-10-04T00:28:51.719Z,15.9
2022-10-04T00:29:58.817Z,15.9
2022-10-04T00:31:06.533Z,15.9
2022-10-04T00:33:19.604Z,16
2022-10-04T00:34:30.070Z,16
2022-10-04T00:35:33.787Z,16
2022-10-04T00:36:40.427Z,16
2022-10-04T00:37:47.550Z,16
2022-10-04T00:38:54.595Z,16.1
2022-10-04T00:40:01.801Z,16.1
2022-10-04T00:41:08.832Z,16
2022-10-04T00:42:15.504Z,16
2022-10-04T00:43:22.526Z,16
2022-10-04T00:44:29.677Z,16
2022-10-04T00:45:36.757Z,16
2022-10-04T00:46:43.848Z,16
2022-10-04T00:47:50.419Z,16
2022-10-04T00:48:57.538Z,16
2022-10-04T00:50:04.629Z,16
2022-10-04T00:51:11.766Z,16
2022-10-04T00:52:18.386Z,16
2022-10-04T00:53:25.397Z,16.1
2022-10-04T00:54:32.537Z,16.1
2022-10-04T00:55:39.669Z,16.1
2022-10-04T00:56:46.766Z,16.1
2022-10-04T00:57:53.817Z,16.1
2022-10-04T00:59:00.427Z,16.1
2022-10-04T01:00:07.531Z,16.1
2022-10-04T01:01:14.684Z,16.1
2022-10-04T01:02:21.837Z,16.1
2022-10-04T01:03:28.907Z,16.1
2022-10-04T01:04:35.498Z,16.1
2022-10-04T01:05:42.550Z,16.1
2022-10-04T01:06:49.727Z,16.1
2022-10-04T01:07:56.726Z,16.1
2022-10-04T01:09:03.310Z,16.1
2022-10-04T01:10:10.485Z,16.1
2022-10-04T01:11:17.588Z,16.1
2022-10-04T01:12:24.689Z,16.1
2022-10-04T01:14:38.407Z,16.1
2022-10-04T01:16:52.527Z,16.1
2022-10-04T01:18:05.432Z,16.1
2022-10-04T01:19:06.766Z,16.2
2022-10-04T01:20:13.366Z,16.1
2022-10-04T01:21:20.545Z,16.1
2022-10-04T01:22:27.628Z,16.1
2022-10-04T01:23:34.836Z,16.1
2022-10-04T01:24:41.806Z,16.2
2022-10-04T01:25:48.445Z,16.2
2022-10-04T01:26:55.469Z,16.2
2022-10-04T01:28:03.217Z,16.2
2022-10-04T01:29:09.748Z,16.2
2022-10-04T01:30:16.777Z,16.2
2022-10-04T01:31:23.474Z,16.2
2022-10-04T01:32:30.495Z,16.2
2022-10-04T01:33:37.576Z,16.3
2022-10-04T01:34:45.378Z,16.2
2022-10-04T01:35:51.825Z,16.2
2022-10-04T01:36:58.424Z,16.1
2022-10-04T01:38:05.496Z,16.1
2022-10-04T01:39:12.662Z,16.1
2022-10-04T01:41:26.848Z,16.1
2022-10-04T01:42:33.398Z,16
2022-10-04T01:43:40.498Z,16
2022-10-04T01:44:47.660Z,16
2022-10-04T01:45:54.813Z,16
2022-10-04T01:47:01.834Z,16
2022-10-04T01:49:15.467Z,16
2022-10-04T01:50:22.607Z,16
2022-10-04T01:51:29.968Z,16
2022-10-04T01:52:36.931Z,15.9
2022-10-04T01:53:43.413Z,15.9
2022-10-04T01:55:57.617Z,15.7
2022-10-04T01:57:04.888Z,15.7
2022-10-04T01:58:11.891Z,15.7
2022-10-04T01:59:18.447Z,15.6
2022-10-04T02:00:25.478Z,15.6
2022-10-04T02:01:32.673Z,15.6
2022-10-04T02:02:39.786Z,15.5
2022-10-04T02:03:46.893Z,15.5
2022-10-04T02:04:53.476Z,15.5
2022-10-04T02:06:00.508Z,15.4
2022-10-04T02:07:07.649Z,15.4
2022-10-04T02:08:14.783Z,15.4
2022-10-04T02:09:21.318Z,15.4
2022-10-04T02:10:28.418Z,15.4
2022-10-04T02:11:35.525Z,15.4
2022-10-04T02:12:42.679Z,15.3
2022-10-04T02:13:50.373Z,15.3
2022-10-04T02:14:56.366Z,15.3
2022-10-04T02:17:11.075Z,15.3
2022-10-04T02:18:17.749Z,15.2
2022-10-04T02:20:31.483Z,15.2
2022-10-04T02:21:38.469Z,15.2
2022-10-04T02:22:45.587Z,15.2
2022-10-04T02:23:52.647Z,15.2
2022-10-04T02:24:59.765Z,15.2
2022-10-04T02:26:06.395Z,15.2
2022-10-04T02:27:13.448Z,15.2
2022-10-04T02:28:20.916Z,15.2
2022-10-04T02:29:27.790Z,15.2
2022-10-04T02:30:34.757Z,15.2
2022-10-04T02:31:41.721Z,15.2
2022-10-04T02:32:48.448Z,15.2
2022-10-04T02:33:55.578Z,15.2
2022-10-04T02:35:02.657Z,15.2
2022-10-04T02:37:16.359Z,15.2
2022-10-04T02:38:23.950Z,15.2
2022-10-04T02:39:30.563Z,15.1
2022-10-04T02:40:37.698Z,15.1
2022-10-04T02:41:44.805Z,15.1
2022-10-04T02:42:51.373Z,15
2022-10-04T02:45:05.795Z,15
2022-10-04T02:46:12.690Z,15
2022-10-04T02:47:19.792Z,15
2022-10-04T02:48:26.369Z,15
2022-10-04T02:49:33.439Z,15
2022-10-04T02:50:40.645Z,15
2022-10-04T02:51:47.728Z,15
2022-10-04T02:52:54.756Z,15
2022-10-04T02:54:03.715Z,15
2022-10-04T02:55:08.538Z,14.9
2022-10-04T02:56:15.598Z,14.9
2022-10-04T02:57:22.709Z,14.9
2022-10-04T02:58:29.298Z,14.9
2022-10-04T02:59:36.386Z,14.9
2022-10-04T03:00:43.510Z,14.9
2022-10-04T03:01:50.663Z,14.9
2022-10-04T03:02:57.738Z,14.9
2022-10-04T03:04:04.269Z,14.9
2022-10-04T03:05:11.418Z,14.9
2022-10-04T03:06:18.687Z,14.9
2022-10-04T03:07:25.576Z,14.9
2022-10-04T03:09:39.266Z,14.9
2022-10-04T03:10:46.387Z,14.9
2022-10-04T03:11:53.547Z,14.9
2022-10-04T03:13:00.575Z,14.9
2022-10-04T03:14:07.744Z,14.8
2022-10-04T03:15:14.319Z,14.9
2022-10-04T03:16:21.544Z,14.8
2022-10-04T03:18:36.139Z,14.8
2022-10-04T03:19:42.710Z,14.8
2022-10-04T03:20:49.281Z,14.8
2022-10-04T03:21:56.497Z,14.8
2022-10-04T03:23:03.491Z,14.8
2022-10-04T03:24:10.648Z,14.8
2022-10-04T03:25:17.748Z,14.8
2022-10-04T03:26:24.315Z,14.8
2022-10-04T03:27:31.489Z,14.8
2022-10-04T03:28:38.641Z,14.8
2022-10-04T03:29:45.628Z,14.8
2022-10-04T03:30:52.739Z,14.8
2022-10-04T03:31:59.488Z,14.7
2022-10-04T03:33:06.431Z,14.7
2022-10-04T03:34:13.501Z,14.7
2022-10-04T03:35:21.709Z,14.7
2022-10-04T03:36:27.778Z,14.7
2022-10-04T03:37:34.327Z,14.7
2022-10-04T03:38:41.498Z,14.6
2022-10-04T03:39:48.540Z,14.6
2022-10-04T03:40:55.660Z,14.6
2022-10-04T03:42:03.247Z,14.6
2022-10-04T03:43:09.487Z,14.6
2022-10-04T03:44:16.518Z,14.6
2022-10-04T03:45:24.256Z,14.6
2022-10-04T03:46:30.099Z,14.6
2022-10-04T03:47:37.760Z,14.6
2022-10-04T03:48:44.353Z,14.6
2022-10-04T03:49:51.477Z,14.6
2022-10-04T03:50:58.554Z,14.6
2022-10-04T03:52:05.629Z,14.6
2022-10-04T03:53:12.286Z,14.6
2022-10-04T03:54:19.387Z,14.6
2022-10-04T03:55:26.522Z,14.6
2022-10-04T03:56:33.531Z,14.6
2022-10-04T03:57:40.657Z,14.5
2022-10-04T03:59:54.355Z,14.6
2022-10-04T04:01:01.600Z,14.6
2022-10-04T04:02:08.697Z,14.6
2022-10-04T04:03:15.677Z,14.6
2022-10-04T04:04:22.291Z,14.6
2022-10-04T04:05:29.427Z,14.5
2022-10-04T04:06:36.745Z,14.6
2022-10-04T04:07:43.598Z,14.6
2022-10-04T04:08:50.705Z,14.6
2022-10-04T04:09:57.308Z,14.5
2022-10-04T04:11:04.386Z,14.5
2022-10-04T04:12:11.589Z,14.5
2022-10-04T04:13:18.608Z,14.5
2022-10-04T04:15:32.278Z,14.5
2022-10-04T04:16:40.555Z,14.5
2022-10-04T04:17:46.546Z,14.5
2022-10-04T04:18:53.587Z,14.5
2022-10-04T04:20:06.165Z,14.5
2022-10-04T04:21:07.289Z,14.5
2022-10-04T04:22:14.388Z,14.5
2022-10-04T04:23:23.063Z,14.5
2022-10-04T04:24:28.656Z,14.5
2022-10-04T04:25:35.805Z,14.5
2022-10-04T04:27:49.414Z,14.5
2022-10-04T04:28:56.590Z,14.5
2022-10-04T04:30:03.637Z,14.5
2022-10-04T04:31:10.748Z,14.5
2022-10-04T04:32:17.307Z,14.4
2022-10-04T04:33:24.374Z,14.4
2022-10-04T04:34:31.736Z,14.4
2022-10-04T04:35:38.668Z,14.4
2022-10-04T04:37:52.338Z,14.4
2022-10-04T04:38:59.452Z,14.4
2022-10-04T04:41:13.594Z,14.4
2022-10-04T04:43:27.371Z,14.4
2022-10-04T04:44:34.417Z,14.4
2022-10-04T04:45:42.197Z,14.3
2022-10-04T04:46:48.853Z,14.3
2022-10-04T04:47:55.768Z,14.3
2022-10-04T04:49:02.366Z,14.3
2022-10-04T04:50:09.489Z,14.3
2022-10-04T04:51:16.585Z,14.2
2022-10-04T04:52:23.815Z,14.2
2022-10-04T04:53:30.807Z,14.2
2022-10-04T04:54:37.339Z,14.2
2022-10-04T04:56:02.715Z,14.2
2022-10-04T04:56:51.608Z,14.2
2022-10-04T04:57:59.293Z,14.1
2022-10-04T04:59:05.243Z,14.1
2022-10-04T05:00:12.356Z,14.1
2022-10-04T05:01:19.527Z,14.1
2022-10-04T05:02:26.639Z,14.1
2022-10-04T05:03:33.697Z,14.1
2022-10-04T05:04:40.294Z,14
2022-10-04T05:05:47.341Z,14
2022-10-04T05:06:54.565Z,13.9
2022-10-04T05:08:03.416Z,13.9
2022-10-04T05:09:08.757Z,13.9
2022-10-04T05:10:15.216Z,13.9
2022-10-04T05:11:22.353Z,13.9
2022-10-04T05:12:29.517Z,13.9
2022-10-04T05:13:37.148Z,13.9
2022-10-04T05:14:43.740Z,13.9
2022-10-04T05:15:50.264Z,13.9
2022-10-04T05:16:57.460Z,13.9
2022-10-04T05:18:04.457Z,13.9
2022-10-04T05:19:11.567Z,13.9
2022-10-04T05:20:19.328Z,13.9
2022-10-04T05:22:32.378Z,13.9
2022-10-04T05:23:39.517Z,13.8
2022-10-04T05:24:46.618Z,13.8
2022-10-04T05:25:55.018Z,13.8
2022-10-04T05:27:00.286Z,13.8
2022-10-04T05:28:07.525Z,13.8
2022-10-04T05:29:14.450Z,13.8
2022-10-04T05:30:21.646Z,13.8
2022-10-04T05:31:28.813Z,13.8
2022-10-04T05:32:35.245Z,13.8
2022-10-04T05:33:42.367Z,13.8
2022-10-04T05:34:49.554Z,13.8
2022-10-04T05:35:56.592Z,13.7
2022-10-04T05:37:03.665Z,13.7
2022-10-04T05:38:10.352Z,13.7
2022-10-04T05:39:18.436Z,13.7
2022-10-04T05:40:24.497Z,13.7
2022-10-04T05:41:33.534Z,13.7
2022-10-04T05:42:38.730Z,13.7
2022-10-04T05:43:45.326Z,13.7
2022-10-04T05:44:52.415Z,13.7
2022-10-04T05:45:59.568Z,13.6
2022-10-04T05:47:06.657Z,13.6
2022-10-04T05:48:13.680Z,13.7
2022-10-04T05:49:20.822Z,13.6
2022-10-04T05:50:27.428Z,13.5
2022-10-04T05:51:34.510Z,13.5
2022-10-04T05:52:41.711Z,13.4
2022-10-04T05:53:48.208Z,13.3
2022-10-04T05:54:55.337Z,13.2
2022-10-04T05:56:02.447Z,13.1
2022-10-04T05:57:09.592Z,13
2022-10-04T05:58:17.487Z,12.9
2022-10-04T05:59:23.217Z,12.9
2022-10-04T06:00:30.338Z,12.8
2022-10-04T06:01:37.548Z,12.8
2022-10-04T06:03:51.745Z,12.6
2022-10-04T06:06:05.366Z,12.6
2022-10-04T06:07:12.406Z,12.5
2022-10-04T06:08:19.557Z,12.5
2022-10-04T06:09:26.698Z,12.5
2022-10-04T06:10:33.209Z,12.5
2022-10-04T06:11:40.543Z,12.5
2022-10-04T06:13:54.550Z,12.5
2022-10-04T06:15:01.897Z,12.5
2022-10-04T06:16:08.278Z,12.5
2022-10-04T06:17:15.337Z,12.5
2022-10-04T06:18:22.480Z,12.4
2022-10-04T06:19:29.578Z,12.4
2022-10-04T06:20:37.326Z,12.3
2022-10-04T06:21:43.583Z,12.3
2022-10-04T06:22:50.346Z,12.3
2022-10-04T06:23:57.486Z,12.2
2022-10-04T06:25:04.544Z,12.2
2022-10-04T06:26:11.723Z,12.2
2022-10-04T06:27:18.334Z,12.2
2022-10-04T06:28:25.507Z,12.2
2022-10-04T06:29:32.457Z,12.2
2022-10-04T06:30:39.690Z,12.1
2022-10-04T06:31:47.003Z,12.1
2022-10-04T06:32:53.397Z,12.1
2022-10-04T06:35:07.473Z,12.1
2022-10-04T06:36:14.580Z,12.1
2022-10-04T06:37:21.707Z,12.1
2022-10-04T06:38:28.339Z,12.1
2022-10-04T06:39:35.336Z,12.1
2022-10-04T06:40:42.467Z,12.1
2022-10-04T06:41:50.108Z,12.1
2022-10-04T06:42:56.769Z,12
2022-10-04T06:45:10.456Z,12
2022-10-04T06:46:17.548Z,12
2022-10-04T06:47:24.621Z,12
2022-10-04T06:48:31.748Z,12
2022-10-04T06:49:38.318Z,12
2022-10-04T06:50:47.098Z,12
2022-10-04T06:51:52.498Z,12
2022-10-04T06:53:00.122Z,12
2022-10-04T06:54:06.727Z,12.1
2022-10-04T06:55:13.286Z,12
2022-10-04T06:56:20.381Z,12
2022-10-04T06:57:27.482Z,12
2022-10-04T06:58:34.597Z,12
2022-10-04T06:59:41.215Z,12
2022-10-04T07:00:48.357Z,12
2022-10-04T07:03:02.472Z,12
2022-10-04T07:04:09.607Z,12
2022-10-04T07:05:16.245Z,12
2022-10-04T07:06:23.316Z,12
2022-10-04T07:07:30.447Z,12
2022-10-04T07:08:37.606Z,12
2022-10-04T07:09:44.636Z,12
2022-10-04T07:10:51.210Z,12.1
2022-10-04T07:11:58.276Z,12
2022-10-04T07:13:05.418Z,12.1
2022-10-04T07:14:12.497Z,12.1
2022-10-04T07:15:19.634Z,12.1
2022-10-04T07:16:26.220Z,12.1
2022-10-04T07:17:33.316Z,12.1
2022-10-04T07:18:40.467Z,12.1
2022-10-04T07:19:47.638Z,12.1
2022-10-04T07:20:54.636Z,12.1
2022-10-04T07:22:01.258Z,12.1
2022-10-04T07:23:08.321Z,12.1
2022-10-04T07:24:15.419Z,12.1
2022-10-04T07:26:29.730Z,12.1
2022-10-04T07:27:36.278Z,12.1
2022-10-04T07:28:43.330Z,12.2
2022-10-04T07:30:57.680Z,12.2
2022-10-04T07:32:04.656Z,12.2
2022-10-04T07:34:18.311Z,12.2
2022-10-04T07:35:25.486Z,12.2
2022-10-04T07:36:33.920Z,12.2
2022-10-04T07:38:46.282Z,12.1
2022-10-04T07:39:53.319Z,12.1
2022-10-04T07:41:00.435Z,12.1
2022-10-04T07:42:07.637Z,12.1
2022-10-04T07:43:15.177Z,12.1
2022-10-04T07:44:21.288Z,12.1
2022-10-04T07:45:30.155Z,12.1
2022-10-04T07:46:35.573Z,12.1
2022-10-04T07:47:42.596Z,12.1
2022-10-04T07:48:49.711Z,12.1
2022-10-04T07:49:56.287Z,12.1
2022-10-04T07:51:03.371Z,12.1
2022-10-04T07:52:10.465Z,12.1
2022-10-04T07:53:17.662Z,12.1
2022-10-04T07:54:24.687Z,12.1
2022-10-04T07:55:31.274Z,12.1
2022-10-04T07:56:38.900Z,12.1
2022-10-04T07:57:45.440Z,12.1
2022-10-04T07:58:55.115Z,12.1
2022-10-04T07:59:59.129Z,12.1
2022-10-04T08:01:06.313Z,12.1
2022-10-04T08:02:13.569Z,12.1
2022-10-04T08:03:20.694Z,12.1
2022-10-04T08:04:27.667Z,12.1
2022-10-04T08:05:34.199Z,12.1
2022-10-04T08:10:08.318Z,12.1
2022-10-04T08:11:14.322Z,12.1
2022-10-04T08:13:23.534Z,12.1
2022-10-04T08:14:30.569Z,12.1
2022-10-04T08:15:37.747Z,12.1
2022-10-04T08:16:44.785Z,12
2022-10-04T08:17:51.337Z,12
2022-10-04T08:18:58.440Z,12
2022-10-04T08:20:05.496Z,11.9
2022-10-04T08:21:12.657Z,11.9
2022-10-04T08:22:20.108Z,11.9
2022-10-04T08:23:26.318Z,11.9
2022-10-04T08:24:33.947Z,11.8
2022-10-04T08:26:47.736Z,11.8
2022-10-04T08:27:54.626Z,11.8
2022-10-04T08:29:01.338Z,11.8
2022-10-04T08:30:08.710Z,11.8
2022-10-04T08:31:15.897Z,11.8
2022-10-04T08:32:23.099Z,11.8
2022-10-04T08:33:29.561Z,11.8
2022-10-04T08:34:36.325Z,11.8
2022-10-04T08:35:43.708Z,11.8
2022-10-04T08:36:50.811Z,11.8
2022-10-04T08:37:57.657Z,11.8
2022-10-04T08:39:04.439Z,11.8
2022-10-04T08:40:13.132Z,11.8
2022-10-04T08:42:25.974Z,11.8
2022-10-04T08:43:32.905Z,11.8
2022-10-04T08:44:39.517Z,11.8
2022-10-04T08:45:46.347Z,11.8
2022-10-04T08:46:53.704Z,11.8
2022-10-04T08:48:03.629Z,11.8
2022-10-04T08:49:08.045Z,11.8
2022-10-04T08:50:14.202Z,11.8
2022-10-04T08:51:21.698Z,11.8
2022-10-04T08:52:28.741Z,11.8
2022-10-04T08:53:35.547Z,11.8
2022-10-04T08:54:42.948Z,11.8
2022-10-04T08:55:49.309Z,11.8
2022-10-04T08:56:56.621Z,11.8
2022-10-04T08:58:03.720Z,11.8
2022-10-04T08:59:10.868Z,11.8
2022-10-04T09:00:17.853Z,11.9
2022-10-04T09:02:31.403Z,11.9
2022-10-04T09:03:38.808Z,11.9
2022-10-04T09:04:45.589Z,11.9
2022-10-04T09:05:53.637Z,11.9
2022-10-04T09:06:59.253Z,12
2022-10-04T09:08:06.380Z,12
2022-10-04T09:09:13.527Z,12
2022-10-04T09:10:24.858Z,12
2022-10-04T09:11:27.439Z,12
2022-10-04T09:12:34.571Z,12.1
2022-10-04T09:13:41.499Z,12.1
2022-10-04T09:14:48.531Z,12.1
2022-10-04T09:15:55.889Z,12.1
2022-10-04T09:17:02.549Z,12.1
2022-10-04T09:18:09.326Z,12.2
2022-10-04T09:19:16.792Z,12.2
2022-10-04T09:20:37.654Z,12.2
2022-10-04T09:21:30.593Z,12.2
2022-10-04T09:22:37.598Z,12.2
2022-10-04T09:23:44.619Z,12.2
2022-10-04T09:24:51.671Z,12.2
2022-10-04T09:25:58.607Z,12.2
2022-10-04T09:27:05.906Z,12.2
2022-10-04T09:28:12.576Z,12.3
2022-10-04T09:29:19.365Z,12.2
2022-10-04T09:30:26.967Z,12.2
2022-10-04T09:31:33.673Z,12.2
2022-10-04T09:32:40.593Z,12.2
2022-10-04T09:33:47.464Z,12.2
2022-10-04T09:34:54.323Z,12.2
2022-10-04T09:36:01.741Z,12.2
2022-10-04T09:37:08.751Z,12.2
2022-10-04T09:38:16.239Z,12.3
2022-10-04T09:39:30.093Z,12.3
2022-10-04T09:40:29.438Z,12.3
2022-10-04T09:41:36.526Z,12.3
2022-10-04T09:42:43.858Z,12.3
2022-10-04T09:43:50.696Z,12.3
2022-10-04T09:44:57.198Z,12.4
2022-10-04T09:46:04.318Z,12.4
2022-10-04T09:47:12.250Z,12.4
2022-10-04T09:48:18.629Z,12.4
2022-10-04T09:49:25.955Z,12.5
2022-10-04T09:50:32.521Z,12.5
2022-10-04T09:51:39.655Z,12.6
2022-10-04T09:52:46.465Z,12.6
2022-10-04T09:53:53.529Z,12.6
2022-10-04T09:55:00.949Z,12.6
2022-10-04T09:56:07.539Z,12.6
2022-10-04T09:57:14.522Z,12.6
2022-10-04T09:58:21.444Z,12.6
2022-10-04T09:59:28.535Z,12.6
2022-10-04T10:00:35.836Z,12.6
2022-10-04T10:01:42.382Z,12.5
2022-10-04T10:02:49.428Z,12.5
2022-10-04T10:03:56.961Z,12.5
2022-10-04T10:05:03.830Z,12.5
2022-10-04T10:06:10.139Z,12.5
2022-10-04T10:07:17.300Z,12.6
2022-10-04T10:08:28.141Z,12.6
2022-10-04T10:09:31.479Z,12.6
2022-10-04T10:10:38.668Z,12.6
2022-10-04T10:11:50.250Z,12.7
2022-10-04T10:12:57.458Z,12.8
2022-10-04T10:14:04.493Z,12.8
2022-10-04T10:16:18.837Z,12.9
2022-10-04T10:20:46.629Z,13
2022-10-04T10:21:53.797Z,13
2022-10-04T10:24:07.419Z,12.9
2022-10-04T10:26:21.849Z,12.9
2022-10-04T10:27:28.803Z,12.9
2022-10-04T10:30:49.555Z,12.9
2022-10-04T10:33:03.814Z,12.9
2022-10-04T10:34:10.377Z,12.9
2022-10-04T10:36:24.606Z,12.9
2022-10-04T10:40:52.490Z,12.9
2022-10-04T10:43:06.729Z,12.9
2022-10-04T10:44:13.677Z,12.9
2022-10-04T10:46:27.684Z,12.9
2022-10-04T10:49:48.818Z,12.9
2022-10-04T10:54:16.748Z,12.9
2022-10-04T10:55:23.318Z,12.9
2022-10-04T10:58:44.598Z,12.9
2022-10-04T10:59:51.889Z,12.9
2022-10-04T11:03:13.896Z,12.8
2022-10-04T11:11:01.695Z,12.9
2022-10-04T11:12:08.326Z,13
2022-10-04T11:16:36.747Z,13.2
2022-10-04T11:17:43.225Z,13.2
2022-10-04T11:21:04.864Z,13.3
2022-10-04T11:22:11.798Z,13.3
2022-10-04T11:24:25.560Z,13.3
2022-10-04T11:26:39.679Z,13.3
2022-10-04T11:28:53.364Z,13.2
2022-10-04T11:31:21.784Z,13.2
2022-10-04T11:34:28.308Z,13
2022-10-04T11:36:42.849Z,13
2022-10-04T11:40:03.402Z,12.9
2022-10-04T11:43:24.642Z,13
2022-10-04T11:45:38.306Z,12.9
2022-10-04T11:50:06.796Z,12.9
2022-10-04T11:53:27.714Z,13.1
2022-10-04T11:55:41.831Z,13.2
2022-10-04T12:01:16.337Z,13
2022-10-04T12:02:23.294Z,13
2022-10-04T12:03:30.529Z,13
2022-10-04T12:07:05.813Z,13
2022-10-04T12:07:58.428Z,13.1
2022-10-04T12:10:12.618Z,13.1
2022-10-04T12:14:40.539Z,13.2
2022-10-04T12:16:54.791Z,13.3
2022-10-04T12:18:03.593Z,13.3
2022-10-04T12:19:08.374Z,13.3
2022-10-04T12:21:22.694Z,13.3
2022-10-04T12:23:36.382Z,13.3
2022-10-04T12:24:43.481Z,13.3
2022-10-04T12:26:57.734Z,13.3
2022-10-04T12:28:04.702Z,13.3
2022-10-04T12:29:11.412Z,13.3
2022-10-04T12:33:39.742Z,13.4
2022-10-04T12:35:53.385Z,13.4
2022-10-04T12:39:14.783Z,13.4
2022-10-04T12:41:28.386Z,13.4
2022-10-04T12:42:35.579Z,13.4
2022-10-04T12:44:49.710Z,13.4
2022-10-04T12:45:56.491Z,13.5
2022-10-04T12:47:03.493Z,13.5
2022-10-04T12:48:10.409Z,13.5
2022-10-04T12:49:17.691Z,13.5
2022-10-04T12:51:31.558Z,13.4
2022-10-04T12:52:38.321Z,13.4
2022-10-04T12:54:52.721Z,13.4
2022-10-04T12:58:13.541Z,13.3
2022-10-04T12:59:20.598Z,13.3
2022-10-04T13:01:34.318Z,13.4
2022-10-04T13:06:02.625Z,13.4
2022-10-04T13:07:09.698Z,13.4
2022-10-04T13:08:16.377Z,13.4
2022-10-04T13:09:23.495Z,13.4
2022-10-04T13:25:01.433Z,13.2
2022-10-04T13:31:43.947Z,13.2
2022-10-04T13:32:50.514Z,13.2
2022-10-04T13:33:57.799Z,13.1
2022-10-04T13:35:04.298Z,13
2022-10-04T13:38:25.655Z,13.1
2022-10-04T13:40:39.336Z,13.1
2022-10-04T13:41:47.092Z,13.2
2022-10-04T13:46:14.388Z,13.2
2022-10-04T13:50:42.302Z,13.2
2022-10-04T13:54:03.558Z,13
2022-10-04T13:56:17.262Z,12.9
2022-10-04T13:57:24.261Z,12.9
2022-10-04T14:01:52.426Z,12.8
2022-10-04T14:05:13.662Z,12.8
2022-10-04T14:08:34.309Z,12.7
2022-10-04T14:14:09.455Z,12.8
2022-10-04T14:15:16.531Z,12.9
2022-10-04T14:16:23.709Z,12.9
2022-10-04T14:17:30.610Z,12.9
2022-10-04T14:19:44.439Z,13
2022-10-04T14:21:58.798Z,13
2022-10-04T14:24:12.238Z,13
2022-10-04T14:25:21.555Z,13
2022-10-04T14:26:26.561Z,13
2022-10-04T14:30:54.432Z,13
2022-10-04T14:32:01.623Z,13
2022-10-04T14:42:04.392Z,13
2022-10-04T14:43:11.467Z,13
2022-10-04T14:44:18.648Z,13
2022-10-04T14:46:32.345Z,13
2022-10-04T14:51:00.165Z,13.2
2022-10-04T14:55:28.877Z,13.1
2022-10-04T14:57:42.441Z,13.1
2022-10-04T14:59:56.657Z,13
2022-10-04T15:02:10.241Z,13
2022-10-04T15:03:17.239Z,13
2022-10-04T15:06:38.999Z,13
2022-10-04T15:08:55.174Z,12.9
2022-10-04T15:11:06.566Z,12.9
2022-10-04T15:15:34.482Z,12.9
2022-10-04T15:22:17.252Z,12.8
2022-10-04T15:25:40.550Z,12.8
2022-10-04T15:30:05.200Z,12.8
2022-10-04T15:32:19.525Z,12.8
2022-10-04T15:40:08.714Z,12.7
2022-10-04T15:41:15.414Z,12.7
2022-10-04T15:46:50.428Z,12.8
2022-10-04T15:47:57.489Z,12.8
2022-10-04T15:50:11.651Z,12.7
2022-10-04T15:52:25.342Z,12.6
2022-10-04T15:53:32.262Z,12.6
2022-10-04T15:56:53.764Z,12.4
2022-10-04T16:01:21.796Z,12.1
2022-10-04T16:05:49.635Z,12
2022-10-04T16:10:17.540Z,12
2022-10-04T16:13:38.308Z,12
2022-10-04T16:14:45.462Z,12
2022-10-04T16:16:59.494Z,12
2022-10-04T16:19:13.221Z,12
2022-10-04T16:23:41.725Z,12
2022-10-04T16:25:56.018Z,12
2022-10-04T16:28:09.658Z,12
2022-10-04T16:29:19.959Z,12
2022-10-04T16:31:30.461Z,12
2022-10-04T16:33:44.184Z,12
2022-10-04T16:35:58.381Z,12
2022-10-04T16:37:05.398Z,12
2022-10-04T16:38:12.442Z,12
2022-10-04T16:39:19.685Z,12
2022-10-04T16:46:01.798Z,12
2022-10-04T16:47:08.351Z,12
2022-10-04T16:49:22.540Z,11.9
2022-10-04T16:50:29.665Z,11.9
2022-10-04T16:51:36.778Z,11.9
2022-10-04T16:53:50.339Z,11.9
2022-10-04T16:57:25.817Z,11.9
2022-10-04T17:00:32.631Z,11.9
2022-10-04T17:01:38.992Z,11.9
2022-10-04T17:01:44.266Z,11.9
2022-10-04T17:05:00.425Z,11.9
2022-10-04T17:07:14.880Z,11.9
2022-10-04T17:08:21.832Z,11.9
2022-10-04T17:12:49.665Z,11.9
2022-10-04T17:16:10.415Z,11.9
2022-10-04T17:17:17.596Z,11.9
2022-10-04T17:18:24.604Z,11.9
2022-10-04T17:19:31.201Z,11.9
2022-10-04T17:25:06.155Z,11.8
2022-10-04T17:27:20.650Z,11.7
2022-10-04T17:28:27.529Z,11.7
2022-10-04T17:29:33.959Z,11.6
2022-10-04T17:31:48.329Z,11.6
2022-10-04T17:32:55.332Z,11.6
2022-10-04T17:35:09.673Z,11.5
2022-10-04T17:37:23.259Z,11.4
2022-10-04T17:38:30.390Z,11.4
2022-10-04T17:40:44.603Z,11.4
2022-10-04T17:44:05.526Z,11.4
2022-10-04T17:48:33.324Z,11.4
2022-10-04T17:55:15.669Z,11.3
2022-10-04T17:57:29.664Z,11.3
2022-10-04T17:58:36.265Z,11.3
2022-10-04T17:59:43.409Z,11.3
2022-10-04T18:01:57.754Z,11.3
2022-10-04T18:04:11.323Z,11.3
2022-10-04T18:06:25.436Z,11.3
2022-10-04T18:07:32.688Z,11.3
2022-10-04T18:10:53.827Z,11.4
2022-10-04T18:13:07.703Z,11.4
2022-10-04T18:15:21.134Z,11.4
2022-10-04T18:17:35.583Z,11.4
2022-10-04T18:18:42.850Z,11.4
2022-10-04T18:19:49.585Z,11.4
2022-10-04T18:22:03.760Z,11.4
2022-10-04T18:24:17.662Z,11.3
2022-10-04T18:25:24.146Z,11.3
2022-10-04T18:29:52.594Z,11.3
2022-10-04T18:32:06.283Z,11.3
2022-10-04T18:33:13.892Z,11.3
2022-10-04T18:34:20.674Z,11.2
2022-10-04T18:36:34.266Z,11.2
2022-10-04T18:39:55.942Z,11.2
2022-10-04T18:42:09.226Z,11.2
2022-10-04T18:43:16.201Z,11.2
2022-10-04T18:46:37.735Z,11.2
2022-10-04T18:51:09.244Z,11.1
2022-10-04T18:52:12.724Z,11.1
2022-10-04T18:53:19.401Z,11.1
2022-10-04T18:56:40.575Z,11
2022-10-04T18:57:47.800Z,11
2022-10-04T18:58:54.277Z,11
2022-10-04T19:01:08.619Z,11
2022-10-04T19:02:16.655Z,11
2022-10-04T19:04:29.388Z,11
2022-10-04T19:06:43.771Z,11
2022-10-04T19:07:50.644Z,10.9
2022-10-04T19:10:04.359Z,10.9
2022-10-04T19:12:18.565Z,10.9
2022-10-04T19:15:39.531Z,10.8
2022-10-04T19:16:46.694Z,10.8
2022-10-04T19:22:21.857Z,10.7
2022-10-04T19:24:35.555Z,10.7
2022-10-04T19:29:03.442Z,10.6
2022-10-04T19:31:17.395Z,10.6
2022-10-04T19:33:31.283Z,10.5
2022-10-04T19:35:45.565Z,10.5
2022-10-04T19:36:52.794Z,10.4
2022-10-04T19:39:10.318Z,10.4
2022-10-04T19:40:13.673Z,10.4
2022-10-04T19:41:20.657Z,10.4
2022-10-04T19:42:27.274Z,10.4
2022-10-04T19:44:41.514Z,10.3
2022-10-04T19:46:55.536Z,10.4
2022-10-04T19:48:03.642Z,10.4
2022-10-04T19:49:09.238Z,10.3
2022-10-04T19:51:23.582Z,10.3
2022-10-04T19:52:30.622Z,10.3
2022-10-04T19:54:44.380Z,10.3
2022-10-04T19:56:58.675Z,10.3
2022-10-04T20:00:19.438Z,10.3
2022-10-04T20:02:33.683Z,10.3
2022-10-04T20:04:47.257Z,10.4
2022-10-04T20:09:15.225Z,10.4
2022-10-04T20:11:29.279Z,10.4
2022-10-04T20:13:43.426Z,10.4
2022-10-04T20:15:57.495Z,10.4
2022-10-04T20:17:04.468Z,10.4
2022-10-04T20:18:11.436Z,10.4
2022-10-04T20:22:39.330Z,10.4
2022-10-04T20:23:46.520Z,10.4
2022-10-04T20:26:01.463Z,10.3
2022-10-04T20:30:28.645Z,10.3
2022-10-04T20:32:42.410Z,10.3
2022-10-04T20:34:56.553Z,10.3
2022-10-04T20:37:10.194Z,10.3
2022-10-04T20:38:31.302Z,10.3
2022-10-04T20:40:32.440Z,10.3
2022-10-04T20:42:45.596Z,10.3
2022-10-04T20:43:52.522Z,10.3
2022-10-04T20:46:06.537Z,10.3
2022-10-04T20:49:27.483Z,10.3
2022-10-04T20:53:55.233Z,10.4
2022-10-04T20:55:02.297Z,10.4
2022-10-04T20:56:09.460Z,10.4
2022-10-04T20:58:23.631Z,10.4
2022-10-04T21:01:44.413Z,10.4
2022-10-04T21:03:58.460Z,10.4
2022-10-04T21:06:13.512Z,10.4
2022-10-04T21:09:33.556Z,10.5
2022-10-04T21:11:47.488Z,10.6
2022-10-04T21:12:54.416Z,10.6
2022-10-04T21:14:01.421Z,10.6
2022-10-04T21:16:15.272Z,10.6
2022-10-04T21:19:36.528Z,10.7
2022-10-04T21:21:50.134Z,10.7
2022-10-04T21:22:57.262Z,10.7
2022-10-04T21:26:18.001Z,10.7
2022-10-04T21:28:32.293Z,10.7
2022-10-04T21:30:46.574Z,10.7
2022-10-04T21:31:53.132Z,10.7
2022-10-04T21:33:00.189Z,10.7
2022-10-04T21:34:07.345Z,10.7
2022-10-04T21:36:21.548Z,10.7
2022-10-04T21:38:35.169Z,10.7
2022-10-04T21:39:42.353Z,10.7
2022-10-04T21:41:56.500Z,10.7
2022-10-04T21:45:17.641Z,10.6
2022-10-04T21:48:38.081Z,10.5
2022-10-04T21:49:45.325Z,10.4
2022-10-04T21:51:59.395Z,10.4
2022-10-04T21:53:06.650Z,10.4
2022-10-04T21:55:20.269Z,10.3
2022-10-04T21:56:27.325Z,10.3
2022-10-04T21:57:35.791Z,10.3
2022-10-04T22:02:02.416Z,10.2
2022-10-04T22:03:09.596Z,10.3
2022-10-04T22:06:30.327Z,10.2
2022-10-04T22:07:37.451Z,10.2
2022-10-04T22:08:44.368Z,10.2